Rechercher aéroport 
image banner adimage banner adimage banner ad
image banner ad

1IA7 - University Of Iowa Hospitals&Clinic

Situé à Iowa City, United States

ICAO - 1IA7, IATA -

Données fournies par Airmate  

Information générale

Coordonnées: N41°39'36" W91°32'51"
Élévation : 840 feet MSL.
Variation magnétique : 02° East
Voir autres Aéroports à Iowa

Données opérationnelles

Special qualification required
Heure actuelle UTC:
Heure actuelle locale:
Météo à : KIOW - Iowa City Muni ( 2 km )
METAR: KIOW 231452Z AUTO 32006KT 10SM CLR 15/07 A3015 RMK AO2 SLP209 T01500072 51007
Voir NOTAMs / SUP AIP / TFR affectant cet aéroport [VIEW]
Fréquences de communication: [VIEW]

Pistes:

Coordonnées de l'aéroport

Adresse: Iowa City United States

Vue satellite de 1IA7